sensor_id;sensor_type;location;lat;lon;timestamp;pressure;altitude;pressure_sealevel;temperature;humidity
15405;BME280;7801;48.124;11.590;2023-02-13T00:00:58;97278.13;;;3.12;98.62
15405;BME280;7801;48.124;11.590;2023-02-13T00:03:23;97264.41;;;3.16;98.69
15405;BME280;7801;48.124;11.590;2023-02-13T00:05:48;97262.38;;;3.05;99.09
15405;BME280;7801;48.124;11.590;2023-02-13T00:08:14;97277.28;;;3.04;99.30
15405;BME280;7801;48.124;11.590;2023-02-13T00:10:39;97273.28;;;3.08;99.24
15405;BME280;7801;48.124;11.590;2023-02-13T00:13:04;97267.69;;;3.31;98.72
15405;BME280;7801;48.124;11.590;2023-02-13T00:15:30;97262.66;;;3.43;98.02
15405;BME280;7801;48.124;11.590;2023-02-13T00:17:55;97261.25;;;3.47;98.06
15405;BME280;7801;48.124;11.590;2023-02-13T00:20:20;97255.00;;;3.61;97.36
15405;BME280;7801;48.124;11.590;2023-02-13T00:22:46;97260.62;;;3.58;97.67
15405;BME280;7801;48.124;11.590;2023-02-13T00:25:11;97255.22;;;3.73;97.14
15405;BME280;7801;48.124;11.590;2023-02-13T00:27:37;97257.22;;;3.51;97.31
15405;BME280;7801;48.124;11.590;2023-02-13T00:30:03;97249.94;;;3.60;97.75
15405;BME280;7801;48.124;11.590;2023-02-13T00:32:29;97248.34;;;3.52;97.57
15405;BME280;7801;48.124;11.590;2023-02-13T00:34:55;97246.28;;;3.34;99.12
15405;BME280;7801;48.124;11.590;2023-02-13T00:37:21;97248.53;;;3.31;99.19
15405;BME280;7801;48.124;11.590;2023-02-13T00:39:46;97253.75;;;3.37;99.51
15405;BME280;7801;48.124;11.590;2023-02-13T00:42:11;97246.31;;;3.48;99.14
15405;BME280;7801;48.124;11.590;2023-02-13T00:44:37;97240.25;;;3.40;99.08
15405;BME280;7801;48.124;11.590;2023-02-13T00:47:02;97239.41;;;3.33;99.85
15405;BME280;7801;48.124;11.590;2023-02-13T00:49:27;97237.03;;;3.45;99.34
15405;BME280;7801;48.124;11.590;2023-02-13T00:51:53;97245.28;;;3.35;99.25
15405;BME280;7801;48.124;11.590;2023-02-13T00:54:18;97235.81;;;3.54;99.42
15405;BME280;7801;48.124;11.590;2023-02-13T00:56:43;97238.22;;;3.42;99.27
15405;BME280;7801;48.124;11.590;2023-02-13T00:59:09;97237.44;;;3.42;99.48
15405;BME280;7801;48.124;11.590;2023-02-13T01:01:34;97239.84;;;3.43;99.63
15405;BME280;7801;48.124;11.590;2023-02-13T01:03:59;97240.22;;;3.34;99.89
15405;BME280;7801;48.124;11.590;2023-02-13T01:06:25;97238.62;;;3.39;99.94
15405;BME280;7801;48.124;11.590;2023-02-13T01:08:50;97241.47;;;3.44;99.92
15405;BME280;7801;48.124;11.590;2023-02-13T01:11:15;97233.19;;;3.41;99.65
15405;BME280;7801;48.124;11.590;2023-02-13T01:13:43;97243.00;;;3.12;100.00
15405;BME280;7801;48.124;11.590;2023-02-13T01:16:08;97237.56;;;3.14;100.00
15405;BME280;7801;48.124;11.590;2023-02-13T01:18:34;97238.84;;;3.31;100.00
15405;BME280;7801;48.124;11.590;2023-02-13T01:21:07;97238.44;;;3.28;100.00
15405;BME280;7801;48.124;11.590;2023-02-13T01:23:36;97232.19;;;3.42;100.00
15405;BME280;7801;48.124;11.590;2023-02-13T01:26:06;97232.38;;;3.40;100.00
15405;BME280;7801;48.124;11.590;2023-02-13T01:28:33;97238.59;;;3.33;100.00
15405;BME280;7801;48.124;11.590;2023-02-13T01:30:58;97226.34;;;3.47;100.00
15405;BME280;7801;48.124;11.590;2023-02-13T01:33:25;97225.91;;;3.56;99.80
15405;BME280;7801;48.124;11.590;2023-02-13T01:35:51;97231.78;;;3.58;99.54
15405;BME280;7801;48.124;11.590;2023-02-13T01:38:17;97228.34;;;3.44;99.83
15405;BME280;7801;48.124;11.590;2023-02-13T01:40:53;97233.78;;;3.43;99.65
15405;BME280;7801;48.124;11.590;2023-02-13T01:43:19;97235.03;;;3.67;99.26
15405;BME280;7801;48.124;11.590;2023-02-13T01:45:49;97231.00;;;3.71;98.81
15405;BME280;7801;48.124;11.590;2023-02-13T01:48:24;97225.13;;;3.56;99.23
15405;BME280;7801;48.124;11.590;2023-02-13T01:53:29;97228.16;;;3.66;99.03
15405;BME280;7801;48.124;11.590;2023-02-13T01:56:00;97226.91;;;3.35;99.36
15405;BME280;7801;48.124;11.590;2023-02-13T01:58:30;97223.50;;;3.41;99.62
15405;BME280;7801;48.124;11.590;2023-02-13T02:00:57;97225.91;;;3.30;99.88
15405;BME280;7801;48.124;11.590;2023-02-13T02:05:58;97229.16;;;3.32;99.61
15405;BME280;7801;48.124;11.590;2023-02-13T02:08:26;97222.47;;;3.36;99.44
15405;BME280;7801;48.124;11.590;2023-02-13T02:10:52;97228.13;;;3.39;99.50
15405;BME280;7801;48.124;11.590;2023-02-13T02:13:19;97231.56;;;3.33;99.71
15405;BME280;7801;48.124;11.590;2023-02-13T02:15:46;97229.72;;;3.34;99.55
15405;BME280;7801;48.124;11.590;2023-02-13T02:18:15;97231.78;;;3.45;99.28
15405;BME280;7801;48.124;11.590;2023-02-13T02:40:00;97237.03;;;3.65;97.33
15405;BME280;7801;48.124;11.590;2023-02-13T02:42:40;97236.44;;;3.50;97.05
15405;BME280;7801;48.124;11.590;2023-02-13T02:45:23;97241.84;;;3.28;97.58
15405;BME280;7801;48.124;11.590;2023-02-13T02:47:58;97240.22;;;3.21;98.71
15405;BME280;7801;48.124;11.590;2023-02-13T02:53:50;97244.47;;;3.35;98.17
15405;BME280;7801;48.124;11.590;2023-02-13T02:56:26;97241.84;;;3.35;97.53
15405;BME280;7801;48.124;11.590;2023-02-13T02:59:03;97240.47;;;3.52;97.15
15405;BME280;7801;48.124;11.590;2023-02-13T03:01:50;97246.28;;;3.21;97.14
15405;BME280;7801;48.124;11.590;2023-02-13T03:05:02;97240.84;;;3.29;96.85
15405;BME280;7801;48.124;11.590;2023-02-13T03:07:46;97236.75;;;3.00;97.59
15405;BME280;7801;48.124;11.590;2023-02-13T03:10:17;97246.19;;;2.88;98.50
15405;BME280;7801;48.124;11.590;2023-02-13T03:13:06;97238.59;;;3.06;98.40
15405;BME280;7801;48.124;11.590;2023-02-13T03:15:45;97244.19;;;2.90;98.75
15405;BME280;7801;48.124;11.590;2023-02-13T03:18:34;97240.59;;;3.04;98.74
15405;BME280;7801;48.124;11.590;2023-02-13T03:27:49;97237.16;;;3.04;98.18
15405;BME280;7801;48.124;11.590;2023-02-13T03:31:13;97236.59;;;3.28;97.87
15405;BME280;7801;48.124;11.590;2023-02-13T03:34:00;97231.16;;;3.23;97.56
15405;BME280;7801;48.124;11.590;2023-02-13T03:39:50;97244.66;;;3.20;96.60
15405;BME280;7801;48.124;11.590;2023-02-13T03:44:56;97249.09;;;3.20;97.32
15405;BME280;7801;48.124;11.590;2023-02-13T03:47:43;97249.72;;;3.28;96.93
15405;BME280;7801;48.124;11.590;2023-02-13T03:50:10;97246.88;;;3.23;97.28
15405;BME280;7801;48.124;11.590;2023-02-13T03:52:52;97254.16;;;3.34;96.59
15405;BME280;7801;48.124;11.590;2023-02-13T03:55:22;97255.16;;;3.33;96.81
15405;BME280;7801;48.124;11.590;2023-02-13T03:58:17;97251.94;;;3.38;96.43
15405;BME280;7801;48.124;11.590;2023-02-13T04:01:06;97253.75;;;3.31;96.24
15405;BME280;7801;48.124;11.590;2023-02-13T04:06:13;97256.38;;;3.37;96.33
15405;BME280;7801;48.124;11.590;2023-02-13T04:08:40;97258.00;;;3.32;96.35
15405;BME280;7801;48.124;11.590;2023-02-13T04:11:20;97254.75;;;3.23;96.73
15405;BME280;7801;48.124;11.590;2023-02-13T04:13:54;97257.00;;;3.39;95.92
15405;BME280;7801;48.124;11.590;2023-02-13T04:16:26;97252.75;;;3.25;95.54
15405;BME280;7801;48.124;11.590;2023-02-13T04:18:55;97254.75;;;3.36;95.50
15405;BME280;7801;48.124;11.590;2023-02-13T04:21:21;97256.38;;;3.37;94.75
15405;BME280;7801;48.124;11.590;2023-02-13T04:23:46;97253.09;;;3.16;95.23
15405;BME280;7801;48.124;11.590;2023-02-13T04:26:22;97261.22;;;3.34;94.64
15405;BME280;7801;48.124;11.590;2023-02-13T04:28:47;97255.72;;;3.16;95.14
15405;BME280;7801;48.124;11.590;2023-02-13T04:31:13;97258.53;;;3.14;95.30
15405;BME280;7801;48.124;11.590;2023-02-13T04:33:39;97255.53;;;3.17;95.30
15405;BME280;7801;48.124;11.590;2023-02-13T04:36:04;97251.50;;;3.08;95.92
15405;BME280;7801;48.124;11.590;2023-02-13T04:38:30;97254.72;;;3.17;95.44
15405;BME280;7801;48.124;11.590;2023-02-13T04:40:55;97254.56;;;3.25;94.92
15405;BME280;7801;48.124;11.590;2023-02-13T04:43:21;97255.97;;;3.27;95.00
15405;BME280;7801;48.124;11.590;2023-02-13T04:45:47;97251.34;;;3.29;94.95
15405;BME280;7801;48.124;11.590;2023-02-13T04:48:13;97258.38;;;3.35;94.41
15405;BME280;7801;48.124;11.590;2023-02-13T04:50:39;97251.94;;;3.25;94.84
15405;BME280;7801;48.124;11.590;2023-02-13T04:53:04;97245.84;;;3.11;95.78
15405;BME280;7801;48.124;11.590;2023-02-13T04:55:29;97252.41;;;2.81;97.11
15405;BME280;7801;48.124;11.590;2023-02-13T04:57:55;97258.78;;;3.19;96.31
15405;BME280;7801;48.124;11.590;2023-02-13T05:00:21;97255.00;;;2.74;96.87
15405;BME280;7801;48.124;11.590;2023-02-13T05:02:46;97258.22;;;2.69;97.40
15405;BME280;7801;48.124;11.590;2023-02-13T05:05:12;97249.56;;;2.69;97.86
15405;BME280;7801;48.124;11.590;2023-02-13T05:07:37;97249.81;;;2.94;97.52
15405;BME280;7801;48.124;11.590;2023-02-13T05:10:03;97251.78;;;2.79;97.83
15405;BME280;7801;48.124;11.590;2023-02-13T05:12:28;97249.47;;;3.03;96.83
15405;BME280;7801;48.124;11.590;2023-02-13T05:14:53;97257.87;;;2.92;96.45
15405;BME280;7801;48.124;11.590;2023-02-13T05:17:19;97258.28;;;2.96;96.82
15405;BME280;7801;48.124;11.590;2023-02-13T05:19:44;97266.66;;;2.65;97.43
15405;BME280;7801;48.124;11.590;2023-02-13T05:22:10;97261.03;;;2.74;97.40
15405;BME280;7801;48.124;11.590;2023-02-13T05:24:54;97262.94;;;2.94;96.83
15405;BME280;7801;48.124;11.590;2023-02-13T05:27:19;97260.56;;;3.05;95.90
15405;BME280;7801;48.124;11.590;2023-02-13T05:29:45;97260.50;;;2.92;96.25
15405;BME280;7801;48.124;11.590;2023-02-13T05:32:11;97253.06;;;2.96;95.40
15405;BME280;7801;48.124;11.590;2023-02-13T05:34:36;97265.97;;;2.91;95.66
15405;BME280;7801;48.124;11.590;2023-02-13T05:37:01;97263.72;;;2.88;95.52
15405;BME280;7801;48.124;11.590;2023-02-13T05:39:27;97271.38;;;2.83;95.49
15405;BME280;7801;48.124;11.590;2023-02-13T05:41:52;97269.00;;;3.01;95.01
15405;BME280;7801;48.124;11.590;2023-02-13T05:44:17;97263.53;;;2.96;95.04
15405;BME280;7801;48.124;11.590;2023-02-13T05:46:43;97269.62;;;3.03;94.81
15405;BME280;7801;48.124;11.590;2023-02-13T05:49:11;97271.25;;;3.04;94.58
15405;BME280;7801;48.124;11.590;2023-02-13T05:51:37;97270.84;;;3.07;94.85
15405;BME280;7801;48.124;11.590;2023-02-13T05:54:03;97271.22;;;2.91;95.28
15405;BME280;7801;48.124;11.590;2023-02-13T05:56:28;97273.22;;;2.89;95.59
15405;BME280;7801;48.124;11.590;2023-02-13T05:58:54;97268.00;;;3.02;95.68
15405;BME280;7801;48.124;11.590;2023-02-13T06:01:21;97277.09;;;3.12;94.79
15405;BME280;7801;48.124;11.590;2023-02-13T06:03:47;97280.34;;;3.21;94.26
15405;BME280;7801;48.124;11.590;2023-02-13T06:06:12;97281.31;;;3.00;94.77
15405;BME280;7801;48.124;11.590;2023-02-13T06:08:38;97278.97;;;3.25;94.60
15405;BME280;7801;48.124;11.590;2023-02-13T06:11:03;97280.59;;;3.39;93.44
15405;BME280;7801;48.124;11.590;2023-02-13T06:13:29;97283.41;;;3.25;93.57
15405;BME280;7801;48.124;11.590;2023-02-13T06:15:55;97288.47;;;3.39;93.26
15405;BME280;7801;48.124;11.590;2023-02-13T06:18:20;97284.38;;;3.17;93.51
15405;BME280;7801;48.124;11.590;2023-02-13T06:20:45;97285.81;;;3.26;93.60
15405;BME280;7801;48.124;11.590;2023-02-13T06:23:11;97290.69;;;3.42;92.54
15405;BME280;7801;48.124;11.590;2023-02-13T06:25:36;97289.88;;;3.42;92.04
15405;BME280;7801;48.124;11.590;2023-02-13T06:28:03;97292.47;;;3.22;92.41
15405;BME280;7801;48.124;11.590;2023-02-13T06:30:29;97299.88;;;3.12;92.82
15405;BME280;7801;48.124;11.590;2023-02-13T06:32:55;97305.47;;;2.96;94.23
15405;BME280;7801;48.124;11.590;2023-02-13T06:35:20;97307.84;;;2.84;95.38
15405;BME280;7801;48.124;11.590;2023-02-13T06:37:45;97303.53;;;3.18;94.44
15405;BME280;7801;48.124;11.590;2023-02-13T06:40:12;97309.41;;;3.20;93.92
15405;BME280;7801;48.124;11.590;2023-02-13T06:42:38;97305.69;;;3.01;94.37
15405;BME280;7801;48.124;11.590;2023-02-13T06:45:05;97316.44;;;3.19;93.75
15405;BME280;7801;48.124;11.590;2023-02-13T06:47:30;97302.19;;;3.41;93.00
15405;BME280;7801;48.124;11.590;2023-02-13T06:49:56;97307.25;;;3.43;92.37
15405;BME280;7801;48.124;11.590;2023-02-13T06:52:21;97303.59;;;3.31;92.66
15405;BME280;7801;48.124;11.590;2023-02-13T06:54:46;97304.75;;;3.15;93.89
15405;BME280;7801;48.124;11.590;2023-02-13T06:57:11;97307.19;;;3.23;93.88
15405;BME280;7801;48.124;11.590;2023-02-13T06:59:37;97309.31;;;3.00;94.28
15405;BME280;7801;48.124;11.590;2023-02-13T07:02:02;97311.22;;;3.19;94.02
15405;BME280;7801;48.124;11.590;2023-02-13T07:04:28;97316.03;;;3.16;94.02
15405;BME280;7801;48.124;11.590;2023-02-13T07:06:54;97321.72;;;3.26;93.43
15405;BME280;7801;48.124;11.590;2023-02-13T07:09:20;97317.50;;;3.38;92.71
15405;BME280;7801;48.124;11.590;2023-02-13T07:18:32;97338.50;;;2.49;95.96
15405;BME280;7801;48.124;11.590;2023-02-13T07:20:57;97339.50;;;2.48;96.26
15405;BME280;7801;48.124;11.590;2023-02-13T07:30:28;97326.94;;;7.09;93.86
15405;BME280;7801;48.124;11.590;2023-02-13T07:32:57;97335.09;;;7.56;82.96
15405;BME280;7801;48.124;11.590;2023-02-13T07:35:22;97333.69;;;7.83;77.05
15405;BME280;7801;48.124;11.590;2023-02-13T07:37:48;97325.31;;;8.51;72.74
15405;BME280;7801;48.124;11.590;2023-02-13T07:40:14;97347.06;;;8.65;70.75
15405;BME280;7801;48.124;11.590;2023-02-13T07:42:39;97344.41;;;8.88;70.47
15405;BME280;7801;48.124;11.590;2023-02-13T07:52:04;97357.63;;;5.99;77.20
15405;BME280;7801;48.124;11.590;2023-02-13T07:57:51;97376.56;;;4.41;85.17
15405;BME280;7801;48.124;11.590;2023-02-13T08:00:17;97370.53;;;4.21;86.21
15405;BME280;7801;48.124;11.590;2023-02-13T08:02:43;97365.66;;;4.18;87.27
15405;BME280;7801;48.124;11.590;2023-02-13T08:05:09;97371.13;;;4.16;87.63
15405;BME280;7801;48.124;11.590;2023-02-13T08:07:35;97375.56;;;4.02;88.30
15405;BME280;7801;48.124;11.590;2023-02-13T08:10:01;97375.31;;;3.77;89.41
15405;BME280;7801;48.124;11.590;2023-02-13T08:12:45;97379.75;;;3.77;89.53
15405;BME280;7801;48.124;11.590;2023-02-13T08:15:12;97375.53;;;3.83;90.03
15405;BME280;7801;48.124;11.590;2023-02-13T08:17:38;97369.91;;;3.86;89.83
15405;BME280;7801;48.124;11.590;2023-02-13T08:20:05;97369.63;;;3.48;91.57
15405;BME280;7801;48.124;11.590;2023-02-13T08:22:34;97381.88;;;3.40;92.04
15405;BME280;7801;48.124;11.590;2023-02-13T08:25:00;97382.06;;;3.32;92.89
15405;BME280;7801;48.124;11.590;2023-02-13T08:27:25;97382.00;;;3.19;93.36
15405;BME280;7801;48.124;11.590;2023-02-13T08:29:52;97376.81;;;2.91;94.64
15405;BME280;7801;48.124;11.590;2023-02-13T08:32:17;97374.00;;;2.86;95.12
15405;BME280;7801;48.124;11.590;2023-02-13T08:34:42;97376.72;;;2.71;96.15
15405;BME280;7801;48.124;11.590;2023-02-13T08:37:08;97370.56;;;2.86;95.84
15405;BME280;7801;48.124;11.590;2023-02-13T08:39:33;97373.41;;;2.91;95.66
15405;BME280;7801;48.124;11.590;2023-02-13T08:41:59;97365.75;;;2.96;95.69
15405;BME280;7801;48.124;11.590;2023-02-13T08:44:24;97366.00;;;3.01;95.58
15405;BME280;7801;48.124;11.590;2023-02-13T08:46:50;97366.75;;;2.95;95.58
15405;BME280;7801;48.124;11.590;2023-02-13T08:49:15;97373.00;;;2.94;95.52
15405;BME280;7801;48.124;11.590;2023-02-13T08:51:41;97375.88;;;2.99;95.79
15405;BME280;7801;48.124;11.590;2023-02-13T08:54:06;97370.09;;;3.10;95.15
15405;BME280;7801;48.124;11.590;2023-02-13T08:56:31;97371.47;;;3.06;95.08
15405;BME280;7801;48.124;11.590;2023-02-13T08:58:57;97370.91;;;3.17;94.97
15405;BME280;7801;48.124;11.590;2023-02-13T09:01:22;97379.47;;;3.39;94.09
15405;BME280;7801;48.124;11.590;2023-02-13T09:03:48;97375.91;;;3.53;93.68
15405;BME280;7801;48.124;11.590;2023-02-13T09:06:14;97370.87;;;3.65;92.72
15405;BME280;7801;48.124;11.590;2023-02-13T09:08:39;97379.53;;;3.59;92.43
15405;BME280;7801;48.124;11.590;2023-02-13T09:11:05;97375.66;;;3.55;92.66
15405;BME280;7801;48.124;11.590;2023-02-13T09:13:34;97378.28;;;3.55;92.23
15405;BME280;7801;48.124;11.590;2023-02-13T09:16:05;97387.31;;;3.32;92.63
15405;BME280;7801;48.124;11.590;2023-02-13T09:18:31;97381.88;;;3.40;92.86
15405;BME280;7801;48.124;11.590;2023-02-13T09:20:58;97385.09;;;3.29;92.63
15405;BME280;7801;48.124;11.590;2023-02-13T09:23:24;97386.91;;;3.35;92.98
15405;BME280;7801;48.124;11.590;2023-02-13T09:25:49;97390.34;;;3.29;92.75
15405;BME280;7801;48.124;11.590;2023-02-13T09:28:14;97400.81;;;3.29;92.84
15405;BME280;7801;48.124;11.590;2023-02-13T09:30:40;97393.59;;;3.44;92.19
15405;BME280;7801;48.124;11.590;2023-02-13T09:33:09;97392.72;;;3.24;92.20
15405;BME280;7801;48.124;11.590;2023-02-13T09:35:35;97395.16;;;3.26;92.94
15405;BME280;7801;48.124;11.590;2023-02-13T09:38:00;97392.97;;;3.29;92.72
15405;BME280;7801;48.124;11.590;2023-02-13T09:40:31;97389.09;;;3.25;92.89
15405;BME280;7801;48.124;11.590;2023-02-13T09:43:12;97389.94;;;3.32;92.77
15405;BME280;7801;48.124;11.590;2023-02-13T09:45:38;97391.09;;;3.23;92.97
15405;BME280;7801;48.124;11.590;2023-02-13T09:48:05;97391.50;;;3.20;93.12
15405;BME280;7801;48.124;11.590;2023-02-13T09:50:34;97391.75;;;3.32;93.34
15405;BME280;7801;48.124;11.590;2023-02-13T09:53:01;97389.97;;;3.45;92.70
15405;BME280;7801;48.124;11.590;2023-02-13T09:55:34;97397.66;;;3.47;92.19
15405;BME280;7801;48.124;11.590;2023-02-13T09:58:08;97390.81;;;3.59;91.87
15405;BME280;7801;48.124;11.590;2023-02-13T10:00:50;97390.00;;;3.59;91.91
15405;BME280;7801;48.124;11.590;2023-02-13T10:03:31;97385.16;;;3.56;91.87
15405;BME280;7801;48.124;11.590;2023-02-13T10:06:07;97397.19;;;2.89;94.41
15405;BME280;7801;48.124;11.590;2023-02-13T10:08:47;97400.22;;;3.27;93.72
15405;BME280;7801;48.124;11.590;2023-02-13T10:11:35;97399.00;;;3.30;93.51
15405;BME280;7801;48.124;11.590;2023-02-13T10:14:30;97399.25;;;3.41;93.29
15405;BME280;7801;48.124;11.590;2023-02-13T10:19:52;97396.41;;;3.36;92.14
15405;BME280;7801;48.124;11.590;2023-02-13T10:22:24;97387.19;;;3.60;92.07
15405;BME280;7801;48.124;11.590;2023-02-13T10:27:24;97389.00;;;3.60;91.63
15405;BME280;7801;48.124;11.590;2023-02-13T10:30:15;97392.06;;;3.70;91.11
15405;BME280;7801;48.124;11.590;2023-02-13T10:32:59;97392.47;;;3.67;91.52
15405;BME280;7801;48.124;11.590;2023-02-13T10:38:18;97374.31;;;3.72;91.56
15405;BME280;7801;48.124;11.590;2023-02-13T10:44:14;97379.59;;;3.85;90.50
15405;BME280;7801;48.124;11.590;2023-02-13T10:57:38;97370.53;;;3.94;90.29
15405;BME280;7801;48.124;11.590;2023-02-13T11:02:51;97363.00;;;3.78;90.82
15405;BME280;7801;48.124;11.590;2023-02-13T11:05:23;97363.81;;;3.72;91.60
15405;BME280;7801;48.124;11.590;2023-02-13T11:07:49;97359.56;;;3.77;91.81
15405;BME280;7801;48.124;11.590;2023-02-13T11:10:20;97361.16;;;3.52;92.24
15405;BME280;7801;48.124;11.590;2023-02-13T11:12:46;97355.53;;;3.75;91.75
15405;BME280;7801;48.124;11.590;2023-02-13T11:15:27;97351.31;;;3.87;91.00
15405;BME280;7801;48.124;11.590;2023-02-13T11:17:55;97354.97;;;3.93;91.07
15405;BME280;7801;48.124;11.590;2023-02-13T11:20:34;97352.53;;;4.04;90.70
15405;BME280;7801;48.124;11.590;2023-02-13T11:26:06;97346.50;;;4.10;90.04
15405;BME280;7801;48.124;11.590;2023-02-13T11:28:38;97341.25;;;4.10;90.38
15405;BME280;7801;48.124;11.590;2023-02-13T11:33:46;97338.38;;;4.19;90.32
15405;BME280;7801;48.124;11.590;2023-02-13T11:36:16;97341.63;;;4.21;90.17
15405;BME280;7801;48.124;11.590;2023-02-13T11:38:57;97344.03;;;4.42;88.97
15405;BME280;7801;48.124;11.590;2023-02-13T11:41:23;97343.84;;;4.50;88.83
15405;BME280;7801;48.124;11.590;2023-02-13T11:43:53;97343.22;;;4.55;88.36
15405;BME280;7801;48.124;11.590;2023-02-13T11:46:26;97347.25;;;4.70;87.85
15405;BME280;7801;48.124;11.590;2023-02-13T11:49:01;97342.00;;;4.57;87.81
15405;BME280;7801;48.124;11.590;2023-02-13T11:51:56;97348.87;;;4.45;88.23
15405;BME280;7801;48.124;11.590;2023-02-13T11:54:34;97353.09;;;4.59;88.40
15405;BME280;7801;48.124;11.590;2023-02-13T11:57:21;97341.53;;;4.80;87.16
15405;BME280;7801;48.124;11.590;2023-02-13T11:59:49;97347.22;;;4.77;86.95
15405;BME280;7801;48.124;11.590;2023-02-13T12:05:14;97349.88;;;4.77;87.05
15405;BME280;7801;48.124;11.590;2023-02-13T12:07:41;97346.56;;;4.95;86.58
15405;BME280;7801;48.124;11.590;2023-02-13T12:10:24;97351.44;;;4.84;86.64
15405;BME280;7801;48.124;11.590;2023-02-13T12:12:58;97347.16;;;4.97;86.03
15405;BME280;7801;48.124;11.590;2023-02-13T12:15:31;97347.19;;;4.83;86.47
15405;BME280;7801;48.124;11.590;2023-02-13T12:26:31;97330.94;;;5.00;85.66
15405;BME280;7801;48.124;11.590;2023-02-13T12:29:19;97328.81;;;5.28;85.13
15405;BME280;7801;48.124;11.590;2023-02-13T12:35:19;97326.47;;;5.13;85.02
15405;BME280;7801;48.124;11.590;2023-02-13T12:43:09;97312.25;;;5.21;85.13
15405;BME280;7801;48.124;11.590;2023-02-13T12:45:56;97304.09;;;5.36;84.11
15405;BME280;7801;48.124;11.590;2023-02-13T12:48:29;97307.75;;;5.35;83.74
15405;BME280;7801;48.124;11.590;2023-02-13T13:15:35;97302.78;;;5.51;82.49
15405;BME280;7801;48.124;11.590;2023-02-13T13:18:17;97299.56;;;5.49;82.51
15405;BME280;7801;48.124;11.590;2023-02-13T13:23:26;97301.56;;;5.16;84.06
15405;BME280;7801;48.124;11.590;2023-02-13T13:28:50;97312.81;;;5.36;83.26
15405;BME280;7801;48.124;11.590;2023-02-13T13:31:17;97303.81;;;5.12;83.76
15405;BME280;7801;48.124;11.590;2023-02-13T13:33:45;97302.22;;;5.05;84.09
15405;BME280;7801;48.124;11.590;2023-02-13T13:44:52;97310.28;;;5.16;83.76
15405;BME280;7801;48.124;11.590;2023-02-13T13:47:31;97303.19;;;5.55;82.52
15405;BME280;7801;48.124;11.590;2023-02-13T13:50:01;97314.62;;;5.36;82.68
15405;BME280;7801;48.124;11.590;2023-02-13T13:52:34;97309.22;;;5.24;83.39
15405;BME280;7801;48.124;11.590;2023-02-13T13:55:03;97316.34;;;5.17;83.42
15405;BME280;7801;48.124;11.590;2023-02-13T14:00:01;97316.50;;;5.22;83.43
15405;BME280;7801;48.124;11.590;2023-02-13T14:02:37;97304.38;;;5.21;83.50
15405;BME280;7801;48.124;11.590;2023-02-13T14:05:24;97306.97;;;5.28;83.93
15405;BME280;7801;48.124;11.590;2023-02-13T14:08:51;97307.06;;;5.08;84.36
15405;BME280;7801;48.124;11.590;2023-02-13T14:13:40;97306.81;;;4.65;86.39
15405;BME280;7801;48.124;11.590;2023-02-13T14:16:09;97305.59;;;4.67;86.39
15405;BME280;7801;48.124;11.590;2023-02-13T14:18:36;97306.41;;;4.61;85.95
15405;BME280;7801;48.124;11.590;2023-02-13T14:21:04;97299.31;;;4.68;85.54
15405;BME280;7801;48.124;11.590;2023-02-13T14:23:43;97295.47;;;4.77;85.35
15405;BME280;7801;48.124;11.590;2023-02-13T14:28:55;97297.88;;;5.24;83.66
15405;BME280;7801;48.124;11.590;2023-02-13T14:36:42;97305.72;;;4.92;84.21
15405;BME280;7801;48.124;11.590;2023-02-13T14:39:29;97274.34;;;8.09;97.69
15405;BME280;7801;48.124;11.590;2023-02-13T14:41:59;97278.75;;;10.21;78.42
15405;BME280;7801;48.124;11.590;2023-02-13T14:44:44;97283.31;;;8.55;68.31
15405;BME280;7801;48.124;11.590;2023-02-13T14:47:20;97286.44;;;8.40;69.19
15405;BME280;7801;48.124;11.590;2023-02-13T14:49:48;97295.37;;;6.66;74.96
15405;BME280;7801;48.124;11.590;2023-02-13T14:52:19;97295.16;;;6.25;77.49
15405;BME280;7801;48.124;11.590;2023-02-13T14:54:54;97296.59;;;5.71;79.53
15405;BME280;7801;48.124;11.590;2023-02-13T14:57:25;97293.88;;;5.52;81.87
15405;BME280;7801;48.124;11.590;2023-02-13T15:00:03;97288.66;;;5.77;80.85
15405;BME280;7801;48.124;11.590;2023-02-13T15:02:35;97288.84;;;5.13;83.09
15405;BME280;7801;48.124;11.590;2023-02-13T15:05:09;97283.75;;;5.18;83.37
15405;BME280;7801;48.124;11.590;2023-02-13T15:07:43;97279.03;;;5.27;83.08
15405;BME280;7801;48.124;11.590;2023-02-13T15:13:01;97294.78;;;4.95;85.31
15405;BME280;7801;48.124;11.590;2023-02-13T15:15:31;97292.97;;;4.89;85.49
15405;BME280;7801;48.124;11.590;2023-02-13T15:18:10;97287.09;;;4.94;85.87
15405;BME280;7801;48.124;11.590;2023-02-13T15:20:42;97287.66;;;5.02;85.51
15405;BME280;7801;48.124;11.590;2023-02-13T15:23:17;97280.75;;;5.14;84.60
15405;BME280;7801;48.124;11.590;2023-02-13T15:25:44;97285.28;;;4.88;85.75
15405;BME280;7801;48.124;11.590;2023-02-13T15:28:20;97277.47;;;5.19;84.43
15405;BME280;7801;48.124;11.590;2023-02-13T15:31:19;97282.16;;;5.48;83.33
15405;BME280;7801;48.124;11.590;2023-02-13T15:33:47;97279.66;;;5.22;84.55
15405;BME280;7801;48.124;11.590;2023-02-13T15:36:18;97284.72;;;5.24;84.37
15405;BME280;7801;48.124;11.590;2023-02-13T15:38:44;97285.84;;;5.41;83.83
15405;BME280;7801;48.124;11.590;2023-02-13T15:41:15;97274.94;;;5.37;84.41
15405;BME280;7801;48.124;11.590;2023-02-13T15:43:45;97282.25;;;5.35;84.38
15405;BME280;7801;48.124;11.590;2023-02-13T15:46:27;97271.69;;;5.67;83.49
15405;BME280;7801;48.124;11.590;2023-02-13T15:48:54;97270.84;;;5.73;82.83
15405;BME280;7801;48.124;11.590;2023-02-13T15:51:24;97270.25;;;5.71;82.92
15405;BME280;7801;48.124;11.590;2023-02-13T15:56:16;97278.06;;;5.59;83.60
15405;BME280;7801;48.124;11.590;2023-02-13T15:58:41;97278.66;;;5.86;82.64
15405;BME280;7801;48.124;11.590;2023-02-13T16:01:07;97273.06;;;5.76;82.64
15405;BME280;7801;48.124;11.590;2023-02-13T16:03:34;97277.44;;;5.57;83.33
15405;BME280;7801;48.124;11.590;2023-02-13T16:06:01;97275.09;;;5.74;83.01
15405;BME280;7801;48.124;11.590;2023-02-13T16:08:34;97272.41;;;5.56;84.08
15405;BME280;7801;48.124;11.590;2023-02-13T16:16:42;97284.34;;;5.58;84.25
15405;BME280;7801;48.124;11.590;2023-02-13T16:19:31;97285.63;;;5.74;83.56
15405;BME280;7801;48.124;11.590;2023-02-13T16:22:02;97282.22;;;5.67;83.59
15405;BME280;7801;48.124;11.590;2023-02-13T16:24:28;97287.41;;;5.48;83.88
15405;BME280;7801;48.124;11.590;2023-02-13T16:26:54;97286.63;;;5.41;84.81